Time;durP1;ratioP1;P1;durP2;ratioP2;P2;SDS_P1;SDS_P2;PMS_P1;PMS_P2;Temp;Humidity;BMP_temperature;BMP_pressure;BME280_temperature;BME280_humidity;BME280_pressure;Samples;Min_cycle;Max_cycle;Signal;HPM_P1;HPM_P2
2021/05/10 00:00:33;;;;;;;1.90;1.80;;;17.00;99.90;;;;;;5065599;28;20494;-75
2021/05/10 00:02:59;;;;;;;3.23;2.43;;;16.90;99.90;;;;;;5043062;28;20468;-74
2021/05/10 00:05:25;;;;;;;2.30;2.17;;;16.90;99.90;;;;;;5020242;28;20481;-74
2021/05/10 00:07:51;;;;;;;2.30;2.10;;;16.90;99.90;;;;;;5020461;28;20453;-74
2021/05/10 00:10:17;;;;;;;2.53;2.20;;;16.80;99.90;;;;;;5019651;28;20516;-74
2021/05/10 00:12:43;;;;;;;2.03;1.93;;;16.80;99.90;;;;;;5010702;28;21118;-74
2021/05/10 00:15:12;;;;;;;2.07;1.97;;;16.80;99.90;;;;;;5014868;28;20494;-74
2021/05/10 00:17:39;;;;;;;2.37;1.90;;;16.70;99.90;;;;;;5034876;27;20470;-74
2021/05/10 00:20:06;;;;;;;2.00;1.80;;;16.70;99.90;;;;;;5044611;27;20478;-74
2021/05/10 00:22:32;;;;;;;2.30;2.10;;;16.60;99.90;;;;;;5045080;27;20445;-74
2021/05/10 00:24:58;;;;;;;4.07;2.03;;;16.60;99.90;;;;;;5048776;27;21010;-75
2021/05/10 00:27:24;;;;;;;2.50;2.33;;;16.60;99.90;;;;;;5034183;27;20445;-74
2021/05/10 00:29:50;;;;;;;2.20;2.00;;;16.50;99.90;;;;;;5040942;27;20482;-74
2021/05/10 00:32:17;;;;;;;3.07;2.87;;;16.50;99.90;;;;;;5033598;27;20532;-74
2021/05/10 00:34:43;;;;;;;3.33;2.90;;;16.50;99.90;;;;;;5029900;27;20457;-74
2021/05/10 00:37:09;;;;;;;2.23;2.13;;;16.50;99.90;;;;;;5035727;27;20496;-75
2021/05/10 00:39:35;;;;;;;2.50;2.10;;;16.50;99.90;;;;;;5017656;28;20457;-74
2021/05/10 00:42:01;;;;;;;2.30;2.10;;;16.40;99.90;;;;;;5038685;27;20474;-74
2021/05/10 00:44:27;;;;;;;2.80;2.33;;;16.40;99.90;;;;;;5033232;27;20481;-74
2021/05/10 00:46:54;;;;;;;1.80;1.70;;;16.40;99.90;;;;;;5039382;27;20901;-74
2021/05/10 00:49:21;;;;;;;2.10;1.70;;;16.40;99.90;;;;;;5024198;27;20511;-74
2021/05/10 00:51:48;;;;;;;1.80;1.70;;;16.40;99.90;;;;;;5013551;28;20987;-75
2021/05/10 00:54:14;;;;;;;2.80;2.60;;;16.40;99.90;;;;;;5041396;27;20485;-74
2021/05/10 00:56:40;;;;;;;4.07;3.77;;;16.40;99.90;;;;;;5037753;27;20856;-74
2021/05/10 00:59:07;;;;;;;5.50;5.00;;;16.30;99.90;;;;;;5040353;27;20550;-74
2021/05/10 01:01:33;;;;;;;3.67;3.10;;;16.30;99.90;;;;;;5023137;28;20937;-74
2021/05/10 01:03:59;;;;;;;2.60;2.40;;;16.40;99.90;;;;;;5041018;27;20482;-74
2021/05/10 01:06:26;;;;;;;2.43;2.00;;;16.30;99.90;;;;;;5027864;27;20454;-74
2021/05/10 01:08:52;;;;;;;2.27;2.07;;;16.30;99.90;;;;;;5041327;27;20978;-74
2021/05/10 01:11:19;;;;;;;1.80;1.70;;;16.30;99.90;;;;;;5039265;27;20865;-74
2021/05/10 01:13:45;;;;;;;2.07;1.90;;;16.30;99.90;;;;;;5018218;27;20521;-74
2021/05/10 01:16:12;;;;;;;1.60;1.50;;;16.30;99.90;;;;;;5043756;27;20495;-74
2021/05/10 01:18:38;;;;;;;2.00;1.90;;;16.20;99.90;;;;;;5036728;27;20454;-74
2021/05/10 01:21:04;;;;;;;1.77;1.67;;;16.30;99.90;;;;;;5043601;27;20444;-74
2021/05/10 01:23:32;;;;;;;2.03;1.83;;;16.30;99.90;;;;;;5029764;27;20549;-75
2021/05/10 01:25:58;;;;;;;2.80;2.00;;;16.30;99.90;;;;;;5026845;27;20509;-74
2021/05/10 01:28:24;;;;;;;2.23;2.00;;;16.30;99.90;;;;;;5033996;27;21275;-74
2021/05/10 01:30:51;;;;;;;2.13;2.03;;;16.30;99.90;;;;;;5029364;28;20926;-74
2021/05/10 01:33:19;;;;;;;2.07;1.80;;;16.30;99.90;;;;;;5052597;27;20456;-74
2021/05/10 01:35:48;;;;;;;2.10;2.00;;;16.30;99.90;;;;;;5037836;27;20485;-75
2021/05/10 01:38:14;;;;;;;1.80;1.70;;;16.30;99.90;;;;;;5020556;28;20526;-74
2021/05/10 01:40:41;;;;;;;4.87;1.90;;;16.20;99.90;;;;;;5045293;27;20529;-74
2021/05/10 01:43:08;;;;;;;4.23;2.10;;;16.20;99.90;;;;;;5016052;28;20670;-74
2021/05/10 01:45:34;;;;;;;3.60;1.70;;;16.20;99.90;;;;;;5012394;28;20471;-74
2021/05/10 01:48:02;;;;;;;2.43;1.50;;;16.20;99.90;;;;;;5023323;27;21057;-74
2021/05/10 01:50:29;;;;;;;1.60;1.50;;;16.20;99.90;;;;;;5036760;27;20532;-74
2021/05/10 01:52:55;;;;;;;2.40;2.20;;;16.20;99.90;;;;;;5017429;28;20486;-74
2021/05/10 01:55:22;;;;;;;1.67;1.47;;;16.10;99.90;;;;;;5037427;27;20452;-74
2021/05/10 01:57:51;;;;;;;2.00;1.80;;;16.10;99.90;;;;;;5027628;27;20453;-75
2021/05/10 02:00:20;;;;;;;4.00;1.90;;;16.00;99.90;;;;;;5021867;27;20493;-74
2021/05/10 02:02:46;;;;;;;1.53;1.43;;;16.00;99.90;;;;;;5031247;27;20505;-74
2021/05/10 02:05:16;;;;;;;1.70;1.60;;;16.00;99.90;;;;;;5012960;28;20493;-75
2021/05/10 02:07:44;;;;;;;2.33;1.80;;;15.90;99.90;;;;;;5036515;27;20457;-74
2021/05/10 02:10:13;;;;;;;9.07;2.50;;;15.90;99.90;;;;;;5019213;28;21060;-74
2021/05/10 02:12:40;;;;;;;5.13;1.87;;;15.90;99.90;;;;;;5054000;27;20482;-74
2021/05/10 02:15:10;;;;;;;2.43;2.00;;;15.80;99.90;;;;;;5018987;28;20486;-75
2021/05/10 02:17:37;;;;;;;4.33;1.83;;;15.80;99.90;;;;;;5018133;27;20545;-74
2021/05/10 02:20:06;;;;;;;1.80;1.70;;;15.70;99.90;;;;;;5017351;28;20549;-74
2021/05/10 02:22:32;;;;;;;2.20;1.70;;;15.70;99.90;;;;;;5040580;27;20967;-74
2021/05/10 02:24:58;;;;;;;1.60;1.50;;;15.70;99.90;;;;;;5028642;27;20486;-74
2021/05/10 02:27:24;;;;;;;1.90;1.80;;;15.60;99.90;;;;;;5045858;27;20505;-74
2021/05/10 02:29:50;;;;;;;3.90;1.60;;;15.60;99.90;;;;;;5030720;27;20572;-74
2021/05/10 02:32:17;;;;;;;1.60;1.50;;;15.60;99.90;;;;;;5024151;28;20518;-74
2021/05/10 02:34:43;;;;;;;1.70;1.60;;;15.50;99.90;;;;;;5036176;27;20449;-74
2021/05/10 02:37:12;;;;;;;3.43;2.23;;;15.50;99.90;;;;;;5032320;27;20486;-74
2021/05/10 02:39:38;;;;;;;1.93;1.70;;;15.50;99.90;;;;;;5023160;27;20458;-74
2021/05/10 02:42:04;;;;;;;1.90;1.80;;;15.40;99.90;;;;;;5026196;27;20571;-74
2021/05/10 02:44:31;;;;;;;2.17;1.43;;;15.40;99.90;;;;;;5024459;27;20537;-74
2021/05/10 02:46:57;;;;;;;2.60;1.50;;;15.40;99.90;;;;;;5052491;27;20481;-74
2021/05/10 02:49:24;;;;;;;1.53;1.43;;;15.30;99.90;;;;;;5019098;27;20538;-74
2021/05/10 02:51:50;;;;;;;1.90;1.80;;;15.30;99.90;;;;;;5036195;27;20493;-73
2021/05/10 02:54:16;;;;;;;3.60;1.80;;;15.30;99.90;;;;;;5021817;27;20481;-74
2021/05/10 02:56:42;;;;;;;1.70;1.60;;;15.20;99.90;;;;;;5038060;27;21018;-74
2021/05/10 02:59:08;;;;;;;2.27;1.53;;;15.20;99.90;;;;;;5015346;28;20554;-74
2021/05/10 03:01:34;;;;;;;2.30;2.10;;;15.20;99.90;;;;;;5044742;27;20540;-74
2021/05/10 03:04:00;;;;;;;2.20;1.67;;;15.10;99.90;;;;;;5015212;27;20514;-74
2021/05/10 03:06:26;;;;;;;1.73;1.60;;;15.10;99.90;;;;;;5013220;28;20972;-74
2021/05/10 03:08:52;;;;;;;2.07;1.97;;;15.10;99.90;;;;;;5020232;28;21008;-74
2021/05/10 03:11:18;;;;;;;2.30;2.10;;;15.00;99.90;;;;;;5029866;27;20451;-74
2021/05/10 03:13:45;;;;;;;2.90;2.03;;;15.00;99.90;;;;;;5021879;28;20556;-74
2021/05/10 03:16:11;;;;;;;1.97;1.70;;;15.00;99.90;;;;;;5044159;27;20610;-76
2021/05/10 03:18:37;;;;;;;2.07;1.97;;;14.90;99.90;;;;;;5022343;28;20578;-75
2021/05/10 03:21:03;;;;;;;2.47;1.67;;;14.90;99.90;;;;;;5020534;28;20897;-75
2021/05/10 03:23:30;;;;;;;2.27;2.07;;;14.90;99.90;;;;;;5044676;27;20462;-75
2021/05/10 03:25:56;;;;;;;6.13;1.90;;;14.90;99.90;;;;;;5030018;27;20580;-76
2021/05/10 03:28:22;;;;;;;3.07;1.87;;;14.80;99.90;;;;;;5020270;28;20477;-75
2021/05/10 03:30:48;;;;;;;2.33;2.13;;;14.80;99.90;;;;;;5040574;27;21075;-75
2021/05/10 03:33:14;;;;;;;2.80;2.43;;;14.80;99.90;;;;;;5024210;28;20864;-75
2021/05/10 03:35:40;;;;;;;4.20;2.33;;;14.80;99.90;;;;;;5030113;28;20462;-75
2021/05/10 03:38:06;;;;;;;2.17;1.97;;;14.80;99.90;;;;;;5025698;28;20960;-75
2021/05/10 03:40:33;;;;;;;1.90;1.63;;;14.90;99.90;;;;;;5030037;28;20484;-76
2021/05/10 03:42:59;;;;;;;3.60;1.87;;;14.80;99.90;;;;;;5029745;28;20488;-76
2021/05/10 03:45:25;;;;;;;4.23;2.30;;;14.90;99.90;;;;;;5029988;28;20449;-75
2021/05/10 03:47:51;;;;;;;3.07;1.83;;;14.90;99.90;;;;;;5029957;28;20511;-75
2021/05/10 03:50:20;;;;;;;2.17;2.00;;;14.90;99.90;;;;;;5029882;28;20481;-75
2021/05/10 03:52:48;;;;;;;3.00;2.10;;;15.00;99.90;;;;;;5030667;28;20951;-75
2021/05/10 03:55:16;;;;;;;2.80;1.90;;;15.00;99.90;;;;;;5033272;28;20480;-75
2021/05/10 03:57:43;;;;;;;1.77;1.67;;;15.00;99.90;;;;;;5033031;28;20445;-75
2021/05/10 04:00:12;;;;;;;2.17;1.87;;;15.00;99.90;;;;;;5022534;28;20482;-75
2021/05/10 04:02:38;;;;;;;2.40;2.20;;;15.10;99.90;;;;;;5041038;27;20476;-75
2021/05/10 04:05:12;;;;;;;1.83;1.70;;;15.10;99.90;;;;;;5027973;27;20445;-75
2021/05/10 04:07:46;;;;;;;3.20;1.57;;;15.10;99.90;;;;;;5033612;27;20545;-75
2021/05/10 04:15:45;;;;;;;2.27;1.90;;;15.40;99.90;;;;;;5044168;27;20560;-75
2021/05/10 04:18:11;;;;;;;2.20;1.90;;;15.40;99.90;;;;;;5029249;27;20449;-75
2021/05/10 04:20:37;;;;;;;2.93;1.80;;;15.50;99.90;;;;;;5040738;27;20480;-75
2021/05/10 04:23:04;;;;;;;2.33;2.13;;;15.50;99.90;;;;;;5018602;28;20485;-75
2021/05/10 04:25:30;;;;;;;2.97;2.10;;;15.60;99.90;;;;;;5042569;27;20476;-75
2021/05/10 04:27:56;;;;;;;3.60;2.17;;;15.60;99.90;;;;;;5019438;28;20446;-75
2021/05/10 04:30:24;;;;;;;2.27;2.07;;;15.60;99.90;;;;;;5054411;27;20519;-75
2021/05/10 04:32:50;;;;;;;3.57;1.43;;;15.70;99.90;;;;;;5028472;27;21107;-75
2021/05/10 04:35:16;;;;;;;1.77;1.67;;;15.70;99.90;;;;;;5036168;27;20453;-75
2021/05/10 04:37:42;;;;;;;3.10;2.07;;;15.80;99.90;;;;;;5025074;28;20485;-75
2021/05/10 04:40:09;;;;;;;3.53;2.17;;;15.80;99.90;;;;;;5040786;27;21165;-75
2021/05/10 04:42:35;;;;;;;3.70;1.87;;;15.90;99.90;;;;;;5031725;27;20548;-75
2021/05/10 04:45:01;;;;;;;2.37;1.67;;;15.90;99.90;;;;;;5015956;28;20490;-75
2021/05/10 04:47:36;;;;;;;2.30;1.83;;;16.10;99.90;;;;;;5050114;27;20875;-76
2021/05/10 04:50:03;;;;;;;3.73;1.97;;;16.20;99.90;;;;;;5029185;27;20483;-76
2021/05/10 04:52:29;;;;;;;2.33;2.00;;;16.20;99.90;;;;;;5039246;27;20456;-75
2021/05/10 04:54:56;;;;;;;1.93;1.73;;;16.30;99.90;;;;;;5025835;27;20887;-75
2021/05/10 04:57:22;;;;;;;1.87;1.77;;;16.40;99.90;;;;;;5038236;27;20454;-75
2021/05/10 04:59:48;;;;;;;2.03;1.73;;;16.40;99.90;;;;;;5018560;28;20482;-75
2021/05/10 05:02:14;;;;;;;3.87;1.70;;;16.50;99.90;;;;;;5038316;27;20620;-77
2021/05/10 05:04:41;;;;;;;2.63;2.43;;;16.50;99.90;;;;;;5040639;27;20528;-76
2021/05/10 05:07:07;;;;;;;2.90;2.70;;;16.60;99.90;;;;;;5020402;27;20458;-76
2021/05/10 05:09:33;;;;;;;3.30;1.90;;;16.70;99.90;;;;;;5027811;27;20559;-75
2021/05/10 05:11:59;;;;;;;2.27;1.80;;;16.70;99.90;;;;;;5015776;27;20454;-75
2021/05/10 05:14:25;;;;;;;1.70;1.47;;;16.70;99.90;;;;;;5016286;27;20975;-75
2021/05/10 05:16:51;;;;;;;1.50;1.40;;;16.80;99.90;;;;;;5038148;27;20506;-76
2021/05/10 05:19:17;;;;;;;2.57;1.40;;;16.90;99.90;;;;;;5032370;27;20493;-75
2021/05/10 05:21:44;;;;;;;4.07;1.67;;;16.90;99.90;;;;;;5026255;27;20451;-75
2021/05/10 05:24:10;;;;;;;1.73;1.43;;;17.10;99.90;;;;;;5021269;28;20449;-75
2021/05/10 05:26:36;;;;;;;3.00;1.50;;;17.20;99.90;;;;;;5037137;27;20484;-75
2021/05/10 05:29:02;;;;;;;1.63;1.53;;;17.30;99.90;;;;;;5018100;28;20970;-75
2021/05/10 05:31:29;;;;;;;1.93;1.83;;;17.50;99.90;;;;;;5014385;28;20583;-75
2021/05/10 05:33:55;;;;;;;1.30;1.20;;;17.60;99.90;;;;;;5016066;28;20454;-75
2021/05/10 05:36:21;;;;;;;2.13;1.87;;;17.80;99.90;;;;;;5039894;27;20891;-75
2021/05/10 05:38:48;;;;;;;2.53;2.40;;;18.10;99.90;;;;;;5027550;27;20485;-75
2021/05/10 05:41:15;;;;;;;7.80;6.63;;;18.20;99.90;;;;;;5029362;27;20812;-76
2021/05/10 05:43:41;;;;;;;3.00;2.13;;;18.50;99.90;;;;;;5021641;27;20537;-76
2021/05/10 05:46:13;;;;;;;1.50;1.40;;;18.80;99.90;;;;;;5011818;28;20450;-76
2021/05/10 05:48:39;;;;;;;2.30;1.37;;;19.20;99.90;;;;;;5018086;27;21052;-76
2021/05/10 05:51:05;;;;;;;1.93;1.40;;;19.60;99.90;;;;;;5036386;27;20477;-76
2021/05/10 05:53:31;;;;;;;3.43;1.60;;;20.10;99.90;;;;;;5030386;27;20492;-76
2021/05/10 05:55:58;;;;;;;2.37;1.70;;;20.50;99.90;;;;;;5022996;27;20533;-75
2021/05/10 05:58:24;;;;;;;1.50;1.37;;;20.90;99.90;;;;;;5025452;27;20499;-74
2021/05/10 06:00:52;;;;;;;1.60;1.50;;;21.20;99.90;;;;;;5019691;27;20450;-75
2021/05/10 06:03:19;;;;;;;1.60;1.50;;;21.30;99.90;;;;;;5010251;28;20466;-75
2021/05/10 06:05:45;;;;;;;1.73;1.30;;;21.50;99.90;;;;;;5023226;28;20879;-74
2021/05/10 06:08:11;;;;;;;2.70;1.80;;;21.80;99.90;;;;;;5021674;27;20445;-74
2021/05/10 06:10:37;;;;;;;3.77;2.17;;;22.20;99.90;;;;;;5044291;27;20568;-74
2021/05/10 06:13:04;;;;;;;1.77;1.67;;;22.40;99.90;;;;;;5024017;27;20507;-75
2021/05/10 06:15:30;;;;;;;2.73;1.67;;;22.80;99.90;;;;;;5020023;28;20458;-75
2021/05/10 06:17:56;;;;;;;1.40;1.30;;;23.00;99.90;;;;;;5021341;27;20486;-74
2021/05/10 06:20:24;;;;;;;3.40;1.40;;;23.20;99.90;;;;;;5019874;28;20853;-77
2021/05/10 06:22:50;;;;;;;2.17;1.70;;;23.50;99.90;;;;;;5021171;28;20482;-77
2021/05/10 06:25:16;;;;;;;2.40;1.70;;;23.60;98.90;;;;;;5014726;28;20450;-75
2021/05/10 06:27:43;;;;;;;2.13;1.60;;;23.80;98.40;;;;;;5032648;27;20512;-75
2021/05/10 06:30:14;;;;;;;4.30;1.60;;;23.90;97.40;;;;;;5028852;27;20477;-75
2021/05/10 06:32:41;;;;;;;1.57;1.47;;;24.10;97.40;;;;;;5037635;27;20445;-74
2021/05/10 06:35:08;;;;;;;1.77;1.30;;;24.30;96.80;;;;;;5023459;27;20454;-74
2021/05/10 06:37:34;;;;;;;1.50;1.40;;;24.40;95.70;;;;;;5011106;28;20458;-74
2021/05/10 06:40:00;;;;;;;1.60;1.50;;;24.50;96.20;;;;;;5015286;27;20449;-75
2021/05/10 06:42:27;;;;;;;1.50;1.40;;;24.70;96.30;;;;;;5028427;27;20482;-75
2021/05/10 06:44:54;;;;;;;2.30;1.40;;;24.90;96.00;;;;;;5036408;27;20887;-75
2021/05/10 06:47:21;;;;;;;4.00;1.60;;;25.00;95.80;;;;;;5020846;27;20454;-75
2021/05/10 06:49:47;;;;;;;1.40;1.30;;;25.10;95.40;;;;;;5014537;28;20562;-74
2021/05/10 06:52:13;;;;;;;2.43;1.70;;;25.10;94.30;;;;;;5024110;27;20461;-75
2021/05/10 06:54:39;;;;;;;2.70;1.80;;;25.20;93.80;;;;;;5020651;27;20457;-75
2021/05/10 06:57:06;;;;;;;4.53;1.53;;;25.30;93.80;;;;;;5014747;28;20503;-75
2021/05/10 06:59:32;;;;;;;1.33;1.23;;;25.40;94.00;;;;;;5017445;28;20450;-75
2021/05/10 07:01:58;;;;;;;3.13;1.60;;;25.50;93.90;;;;;;5009997;28;20485;-75
2021/05/10 07:04:25;;;;;;;4.63;2.03;;;25.50;93.60;;;;;;5010560;28;20450;-75
2021/05/10 07:06:51;;;;;;;4.63;1.50;;;25.50;92.20;;;;;;5010719;28;20470;-75
2021/05/10 07:09:17;;;;;;;4.00;1.60;;;25.60;92.70;;;;;;5010810;28;20503;-76
2021/05/10 07:11:43;;;;;;;1.50;1.40;;;25.70;92.60;;;;;;5010731;28;20455;-76
2021/05/10 07:14:09;;;;;;;5.57;1.93;;;25.70;92.40;;;;;;5010586;28;20454;-76
2021/05/10 07:16:35;;;;;;;1.70;1.60;;;25.80;92.10;;;;;;5010693;28;20534;-76
2021/05/10 07:19:02;;;;;;;1.30;1.20;;;25.90;92.30;;;;;;5010606;28;20503;-73
2021/05/10 07:21:29;;;;;;;2.23;2.13;;;26.00;92.20;;;;;;5014485;27;20855;-73
2021/05/10 07:23:56;;;;;;;2.33;1.73;;;26.00;92.10;;;;;;5010094;28;20512;-76
2021/05/10 07:26:22;;;;;;;1.60;1.50;;;26.00;92.00;;;;;;5033040;27;20838;-74
2021/05/10 07:28:48;;;;;;;3.70;1.70;;;26.00;92.10;;;;;;5034125;27;20932;-74
2021/05/10 07:31:14;;;;;;;2.40;1.70;;;26.00;91.00;;;;;;5019894;27;20566;-73
2021/05/10 07:33:40;;;;;;;6.80;6.10;;;26.10;91.00;;;;;;5022107;28;20535;-74
2021/05/10 07:36:06;;;;;;;3.40;3.10;;;26.10;90.50;;;;;;5018073;28;20478;-74
2021/05/10 07:38:33;;;;;;;1.83;1.73;;;26.20;91.30;;;;;;5020278;28;20461;-77
2021/05/10 07:40:59;;;;;;;2.40;1.97;;;26.30;91.60;;;;;;5015830;28;20960;-76
2021/05/10 07:43:25;;;;;;;2.13;1.47;;;26.30;91.10;;;;;;5022517;28;20536;-76
2021/05/10 07:45:51;;;;;;;1.67;1.57;;;26.30;91.20;;;;;;5021078;28;20505;-77
2021/05/10 07:48:18;;;;;;;2.20;2.00;;;26.30;91.30;;;;;;5029994;28;20516;-76
2021/05/10 07:50:44;;;;;;;1.30;1.20;;;26.10;91.30;;;;;;5020234;28;20514;-76
2021/05/10 07:53:12;;;;;;;1.43;1.33;;;26.00;91.40;;;;;;5017557;28;20481;-76
2021/05/10 07:55:40;;;;;;;4.13;1.80;;;25.90;91.40;;;;;;5014015;28;20454;-76
2021/05/10 07:58:06;;;;;;;1.53;1.43;;;25.90;91.50;;;;;;5012939;28;20482;-77
2021/05/10 08:00:34;;;;;;;1.43;1.30;;;25.80;90.60;;;;;;5044303;28;20505;-76
2021/05/10 08:03:06;;;;;;;1.83;1.53;;;25.90;90.90;;;;;;5026483;28;20478;-77
2021/05/10 08:05:32;;;;;;;1.67;1.57;;;25.80;91.50;;;;;;5017104;28;20466;-76
2021/05/10 08:07:58;;;;;;;1.50;1.40;;;25.80;91.60;;;;;;5020832;28;20508;-76
2021/05/10 08:10:25;;;;;;;3.50;1.63;;;25.60;90.80;;;;;;5041132;28;20560;-79
2021/05/10 08:12:51;;;;;;;3.77;1.93;;;25.50;90.80;;;;;;5067222;28;20473;-79
2021/05/10 08:15:18;;;;;;;3.47;1.67;;;25.40;91.90;;;;;;5048070;28;20453;-79
2021/05/10 08:17:44;;;;;;;2.83;1.63;;;25.30;91.50;;;;;;5108241;28;20923;-79
2021/05/10 08:20:11;;;;;;;1.87;1.73;;;25.10;91.80;;;;;;5046758;28;20585;-79
2021/05/10 08:22:37;;;;;;;6.93;1.50;;;24.90;92.00;;;;;;5101796;28;20488;-79
2021/05/10 08:25:04;;;;;;;1.80;1.43;;;24.80;91.80;;;;;;5079114;28;20483;-79
2021/05/10 08:27:32;;;;;;;1.60;1.50;;;24.70;92.10;;;;;;5081373;28;20480;-79
2021/05/10 08:29:59;;;;;;;1.50;1.40;;;24.60;92.80;;;;;;5114855;28;20468;-79
2021/05/10 08:32:25;;;;;;;2.70;1.53;;;24.60;93.30;;;;;;5051400;28;20440;-79
2021/05/10 08:34:51;;;;;;;1.80;1.70;;;24.40;93.50;;;;;;5091577;28;20478;-79
2021/05/10 08:37:20;;;;;;;2.80;1.40;;;24.40;92.20;;;;;;5088874;28;20837;-80
2021/05/10 08:39:46;;;;;;;2.50;2.13;;;24.30;92.00;;;;;;5054646;27;20478;-79
2021/05/10 08:42:12;;;;;;;5.40;2.00;;;24.20;92.90;;;;;;5118551;27;20661;-79
2021/05/10 08:44:38;;;;;;;2.53;1.70;;;24.20;93.50;;;;;;5064724;27;20525;-79
2021/05/10 08:47:05;;;;;;;3.13;1.63;;;24.20;93.60;;;;;;5085202;27;20480;-79
2021/05/10 08:49:31;;;;;;;2.10;1.90;;;24.10;93.50;;;;;;5102769;27;20476;-79
2021/05/10 08:51:57;;;;;;;2.00;1.60;;;24.10;93.50;;;;;;5049995;27;20452;-80
2021/05/10 08:54:25;;;;;;;3.40;1.60;;;24.10;94.10;;;;;;5114618;27;20488;-79
2021/05/10 08:56:52;;;;;;;1.50;1.40;;;24.10;94.10;;;;;;5035010;27;20452;-79
2021/05/10 08:59:20;;;;;;;7.37;1.70;;;24.10;94.20;;;;;;5034592;27;20979;-79
2021/05/10 09:01:49;;;;;;;7.90;2.53;;;24.10;94.10;;;;;;5032500;27;20477;-79
2021/05/10 09:04:18;;;;;;;2.33;2.13;;;24.10;94.00;;;;;;5036022;27;20449;-79
2021/05/10 09:06:44;;;;;;;3.77;1.70;;;24.20;92.70;;;;;;5032610;27;20457;-79
2021/05/10 09:09:11;;;;;;;1.70;1.60;;;24.20;93.30;;;;;;5035175;27;20449;-79
2021/05/10 09:11:53;;;;;;;1.60;1.50;;;24.20;93.20;;;;;;5023509;28;20485;-79
2021/05/10 09:14:30;;;;;;;6.93;1.80;;;24.30;93.10;;;;;;5047858;27;20444;-80
2021/05/10 09:16:56;;;;;;;1.97;1.87;;;24.30;93.20;;;;;;5090926;27;20449;-80
2021/05/10 09:19:41;;;;;;;1.70;1.60;;;24.40;93.70;;;;;;5095771;27;20552;-80
2021/05/10 09:22:08;;;;;;;1.77;1.67;;;24.40;93.80;;;;;;5049595;27;20471;-79
2021/05/10 09:24:44;;;;;;;2.40;1.60;;;24.40;94.00;;;;;;5106976;27;20480;-79
2021/05/10 09:27:25;;;;;;;3.13;1.80;;;24.50;93.80;;;;;;5087123;27;20487;-79
2021/05/10 09:30:12;;;;;;;1.63;1.53;;;24.40;93.20;;;;;;5050810;27;20469;-79
2021/05/10 09:32:38;;;;;;;2.37;1.60;;;24.40;93.20;;;;;;5049831;27;20501;-80
2021/05/10 09:35:20;;;;;;;1.63;1.53;;;24.30;93.20;;;;;;5084886;27;20781;-79
2021/05/10 09:37:53;;;;;;;4.00;1.77;;;24.30;94.30;;;;;;5112429;27;20449;-79
2021/05/10 09:40:20;;;;;;;3.90;2.40;;;24.30;94.30;;;;;;5033912;27;20445;-79
2021/05/10 09:42:51;;;;;;;3.10;2.80;;;24.20;94.20;;;;;;5097554;27;20464;-80
2021/05/10 09:45:35;;;;;;;2.47;1.60;;;24.20;94.60;;;;;;5091307;27;20531;-80
2021/05/10 09:48:10;;;;;;;1.87;1.60;;;24.30;94.40;;;;;;5048564;27;20472;-80
2021/05/10 09:50:39;;;;;;;5.03;1.67;;;24.30;93.90;;;;;;5103944;27;20477;-80
2021/05/10 09:53:07;;;;;;;3.70;1.70;;;24.30;94.10;;;;;;5082289;27;20463;-80
2021/05/10 09:55:49;;;;;;;2.20;1.30;;;24.30;95.00;;;;;;5063488;27;20457;-80
2021/05/10 09:58:18;;;;;;;4.70;1.87;;;24.40;94.70;;;;;;5117108;27;20463;-81
2021/05/10 10:00:44;;;;;;;2.07;1.97;;;24.50;94.80;;;;;;5067056;27;20452;-80
2021/05/10 10:03:28;;;;;;;3.93;1.60;;;24.60;94.90;;;;;;5076845;27;20558;-79
2021/05/10 10:05:56;;;;;;;2.67;1.73;;;24.70;95.00;;;;;;5114056;27;20445;-79
2021/05/10 10:08:23;;;;;;;2.03;1.67;;;24.80;95.00;;;;;;5051634;27;20441;-79
2021/05/10 10:10:50;;;;;;;2.17;1.97;;;24.90;94.80;;;;;;5095116;27;20569;-79
2021/05/10 10:13:17;;;;;;;2.43;1.60;;;25.10;93.80;;;;;;5090224;27;20753;-79
2021/05/10 10:15:43;;;;;;;2.10;2.00;;;25.30;94.20;;;;;;5056333;27;20488;-79
2021/05/10 10:18:10;;;;;;;2.00;1.87;;;25.40;94.30;;;;;;5117074;27;20444;-79
2021/05/10 10:20:38;;;;;;;2.10;2.00;;;25.50;94.10;;;;;;5061761;27;20441;-80
2021/05/10 10:23:06;;;;;;;5.67;1.80;;;25.70;94.00;;;;;;5083942;27;20449;-78
2021/05/10 10:25:33;;;;;;;2.13;1.83;;;25.90;93.10;;;;;;5101857;27;20565;-78
2021/05/10 10:28:00;;;;;;;3.83;3.53;;;25.90;92.50;;;;;;5079343;27;20445;-79
2021/05/10 10:30:27;;;;;;;3.30;1.90;;;26.00;93.10;;;;;;5074616;27;20526;-78
2021/05/10 10:32:59;;;;;;;2.70;1.77;;;25.90;93.40;;;;;;5076848;27;20549;-79
2021/05/10 10:35:25;;;;;;;5.97;2.20;;;25.80;93.40;;;;;;5122211;27;20449;-79
2021/05/10 10:37:52;;;;;;;2.03;1.83;;;25.70;93.20;;;;;;5131411;27;20482;-78
2021/05/10 10:40:21;;;;;;;1.80;1.70;;;25.60;93.60;;;;;;5132257;27;20574;-79
2021/05/10 10:42:48;;;;;;;6.60;2.03;;;25.50;93.90;;;;;;5132984;27;20497;-79
2021/05/10 10:45:22;;;;;;;2.37;1.90;;;25.50;94.40;;;;;;5134500;27;20924;-78
2021/05/10 10:47:53;;;;;;;2.90;1.73;;;25.50;94.30;;;;;;5134341;27;20448;-78
2021/05/10 10:50:22;;;;;;;3.20;1.70;;;25.50;94.10;;;;;;5102934;27;20492;-79
2021/05/10 10:52:50;;;;;;;3.83;1.70;;;25.50;92.70;;;;;;5032113;28;20544;-79
2021/05/10 10:55:22;;;;;;;3.47;1.60;;;25.50;93.20;;;;;;5050445;28;20459;-79
2021/05/10 10:57:48;;;;;;;7.87;2.50;;;25.60;94.10;;;;;;5050264;28;20459;-78
2021/05/10 11:00:17;;;;;;;5.10;2.30;;;25.60;93.90;;;;;;5050233;28;20483;-79
2021/05/10 11:02:46;;;;;;;2.57;1.60;;;25.60;93.90;;;;;;5049799;28;20899;-77
2021/05/10 11:05:15;;;;;;;1.70;1.60;;;25.60;94.50;;;;;;5050179;28;20453;-77
2021/05/10 11:07:49;;;;;;;3.70;1.80;;;25.50;94.50;;;;;;5050193;28;20448;-76
2021/05/10 11:10:47;;;;;;;1.93;1.73;;;25.50;93.40;;;;;;5049222;28;20548;-76
2021/05/10 11:13:39;;;;;;;4.17;1.80;;;25.50;93.50;;;;;;5029179;28;20936;-77
2021/05/10 11:16:10;;;;;;;2.10;1.87;;;25.50;94.10;;;;;;5030428;28;20445;-76
2021/05/10 11:18:46;;;;;;;4.77;2.00;;;25.50;94.20;;;;;;5030185;28;20557;-77
2021/05/10 11:21:38;;;;;;;1.60;1.50;;;25.50;93.60;;;;;;5030127;28;20461;-76
2021/05/10 11:24:06;;;;;;;2.03;1.57;;;25.50;93.60;;;;;;5030183;28;20780;-76
2021/05/10 11:26:39;;;;;;;1.60;1.50;;;25.50;93.50;;;;;;5029934;28;21056;-77
2021/05/10 11:29:07;;;;;;;1.90;1.70;;;25.60;93.40;;;;;;5029868;28;20812;-76
2021/05/10 11:31:37;;;;;;;2.03;1.93;;;25.60;93.10;;;;;;5029853;28;20513;-77
2021/05/10 11:34:11;;;;;;;1.90;1.80;;;25.70;92.20;;;;;;5030082;28;20481;-77
2021/05/10 11:36:49;;;;;;;2.63;2.43;;;25.80;93.20;;;;;;5030297;28;20453;-77
2021/05/10 11:39:22;;;;;;;2.23;1.80;;;25.90;92.90;;;;;;5029704;28;20834;-76
2021/05/10 11:41:50;;;;;;;3.07;2.03;;;26.00;93.30;;;;;;5029910;28;20461;-77
2021/05/10 11:44:21;;;;;;;2.60;1.60;;;26.10;93.00;;;;;;5029664;28;20457;-77
2021/05/10 11:46:50;;;;;;;1.80;1.70;;;26.30;92.70;;;;;;5029965;28;20457;-78
2021/05/10 11:49:41;;;;;;;1.77;1.50;;;26.40;92.30;;;;;;5029678;28;20485;-77
2021/05/10 11:52:09;;;;;;;2.10;1.90;;;26.40;91.40;;;;;;5033824;28;20481;-76
2021/05/10 11:54:38;;;;;;;1.73;1.63;;;26.50;91.40;;;;;;5026757;28;20545;-77
2021/05/10 11:57:09;;;;;;;2.23;1.50;;;26.50;91.60;;;;;;5029981;28;20492;-78
2021/05/10 11:59:40;;;;;;;1.93;1.70;;;26.50;91.50;;;;;;5029683;28;20507;-79
2021/05/10 12:02:28;;;;;;;1.77;1.67;;;26.50;91.50;;;;;;5029639;28;20568;-80
2021/05/10 12:04:55;;;;;;;1.77;1.67;;;26.50;91.10;;;;;;5030800;27;20548;-80
2021/05/10 12:07:22;;;;;;;1.77;1.67;;;26.50;91.40;;;;;;5029678;28;20488;-81
2021/05/10 12:09:51;;;;;;;2.30;1.77;;;26.60;91.20;;;;;;5029578;28;20808;-80
2021/05/10 12:12:26;;;;;;;3.60;3.27;;;26.70;91.40;;;;;;5029591;28;20442;-80
2021/05/10 12:14:57;;;;;;;7.30;6.60;;;26.90;90.90;;;;;;5032144;28;20444;-79
2021/05/10 12:17:26;;;;;;;5.70;4.13;;;27.00;90.30;;;;;;5033295;28;20460;-80
2021/05/10 12:19:58;;;;;;;2.10;1.93;;;27.00;90.60;;;;;;5033046;28;20531;-80
2021/05/10 12:22:26;;;;;;;1.80;1.70;;;27.00;91.10;;;;;;5031895;28;20445;-80
2021/05/10 12:25:27;;;;;;;2.80;1.63;;;26.90;91.30;;;;;;5033083;28;20454;-80
2021/05/10 12:28:02;;;;;;;1.30;1.20;;;26.90;90.40;;;;;;5034120;28;20455;-80
2021/05/10 12:30:31;;;;;;;2.90;1.60;;;26.80;90.50;;;;;;5033136;28;21059;-80
2021/05/10 12:33:00;;;;;;;2.00;1.80;;;26.70;88.70;;;;;;5032995;28;20449;-80
2021/05/10 12:35:29;;;;;;;1.50;1.40;;;26.70;89.00;;;;;;5031017;28;20454;-80
2021/05/10 12:37:57;;;;;;;1.50;1.40;;;26.60;89.00;;;;;;5032483;28;20809;-82
2021/05/10 12:40:25;;;;;;;2.00;1.77;;;26.60;90.00;;;;;;5032612;28;20508;-82
2021/05/10 12:43:09;;;;;;;1.90;1.80;;;26.50;90.30;;;;;;5032754;28;20501;-81
2021/05/10 12:45:36;;;;;;;1.73;1.60;;;26.60;89.90;;;;;;5032754;28;20454;-78
2021/05/10 12:48:14;;;;;;;1.60;1.50;;;26.50;89.90;;;;;;5032395;28;20831;-79
2021/05/10 12:50:42;;;;;;;5.77;5.27;;;26.60;89.60;;;;;;5032496;28;20873;-79
2021/05/10 12:53:08;;;;;;;2.60;2.17;;;26.60;90.20;;;;;;5032408;28;20503;-79
2021/05/10 12:55:36;;;;;;;1.70;1.60;;;26.60;89.60;;;;;;5032472;28;20559;-79
2021/05/10 12:58:22;;;;;;;5.63;2.90;;;26.60;90.30;;;;;;5032251;28;20493;-79